createdAt,value
2017-03-15T00:00:34.786Z,99.99
2017-03-15T00:01:34.774Z,99.99
2017-03-15T00:02:34.759Z,99.99
2017-03-15T00:03:34.724Z,99.99
2017-03-15T00:04:34.719Z,99.99
2017-03-15T00:05:34.697Z,99.99
2017-03-15T00:06:34.676Z,99.99
2017-03-15T00:07:34.658Z,99.99
2017-03-15T00:08:34.645Z,99.99
2017-03-15T00:09:34.606Z,99.99
2017-03-15T00:10:34.285Z,99.99
2017-03-15T00:11:34.570Z,99.99
2017-03-15T00:12:34.551Z,99.99
2017-03-15T00:13:34.536Z,99.99
2017-03-15T00:14:34.507Z,99.99
2017-03-15T00:15:34.496Z,99.99
2017-03-15T00:16:34.473Z,99.99
2017-03-15T00:17:34.460Z,99.99
2017-03-15T00:18:34.440Z,99.99
2017-03-15T00:19:34.420Z,99.99
2017-03-15T00:20:34.389Z,99.99
2017-03-15T00:21:34.384Z,99.99
2017-03-15T00:22:34.358Z,99.99
2017-03-15T00:23:34.329Z,99.99
2017-03-15T00:24:34.318Z,99.99
2017-03-15T00:25:34.301Z,99.99
2017-03-15T00:26:34.282Z,99.99
2017-03-15T00:27:34.263Z,99.99
2017-03-15T00:28:34.228Z,99.99
2017-03-15T00:29:34.220Z,99.99
2017-03-15T00:30:34.189Z,99.99
2017-03-15T00:31:34.166Z,99.99
2017-03-15T00:32:34.147Z,99.99
2017-03-15T00:33:34.147Z,99.99
2017-03-15T00:34:34.117Z,99.99
2017-03-15T00:35:33.789Z,99.99
2017-03-15T00:36:34.072Z,99.99
2017-03-15T00:37:34.052Z,99.99
2017-03-15T00:38:34.030Z,99.99
2017-03-15T00:39:34.004Z,99.99
2017-03-15T00:40:33.985Z,99.99
2017-03-15T00:41:33.967Z,99.99
2017-03-15T00:42:33.953Z,99.99
2017-03-15T00:43:33.934Z,99.99
2017-03-15T00:44:33.901Z,99.99
2017-03-15T00:45:33.886Z,99.99
2017-03-15T00:46:33.871Z,99.99
2017-03-15T00:47:33.851Z,99.99
2017-03-15T00:48:33.819Z,99.99
2017-03-15T00:49:33.806Z,99.99
2017-03-15T00:50:33.781Z,99.99
2017-03-15T00:51:33.772Z,99.99
2017-03-15T00:52:33.760Z,99.99
2017-03-15T00:53:33.734Z,99.99
2017-03-15T00:54:33.702Z,99.99
2017-03-15T00:55:33.690Z,99.99
2017-03-15T00:56:33.664Z,99.99
2017-03-15T00:57:33.643Z,99.99
2017-03-15T00:58:33.636Z,99.99
2017-03-15T00:59:33.606Z,99.99
2017-03-15T01:00:33.599Z,99.99
2017-03-15T01:01:33.561Z,99.99
2017-03-15T01:02:33.242Z,99.99
2017-03-15T01:03:33.523Z,99.99
2017-03-15T01:04:33.504Z,99.99
2017-03-15T01:05:33.498Z,99.99
2017-03-15T01:06:33.465Z,99.99
2017-03-15T01:07:33.454Z,99.99
2017-03-15T01:08:33.432Z,99.99
2017-03-15T01:09:33.418Z,99.99
2017-03-15T01:10:33.386Z,99.99
2017-03-15T01:11:33.377Z,99.99
2017-03-15T01:12:33.346Z,99.99
2017-03-15T01:13:33.339Z,99.99
2017-03-15T01:14:33.320Z,99.99
2017-03-15T01:15:33.286Z,99.99
2017-03-15T01:16:33.267Z,99.99
2017-03-15T01:17:33.245Z,99.99
2017-03-15T01:18:33.224Z,99.99
2017-03-15T01:19:33.241Z,99.99
2017-03-15T01:20:33.189Z,99.99
2017-03-15T01:21:33.166Z,99.99
2017-03-15T01:22:33.144Z,99.99
2017-03-15T01:23:33.138Z,99.99
2017-03-15T01:24:33.114Z,99.99
2017-03-15T01:25:33.099Z,99.99
2017-03-15T01:26:33.078Z,99.99
2017-03-15T01:27:33.054Z,99.99
2017-03-15T01:28:33.029Z,99.99
2017-03-15T01:29:33.058Z,99.99
2017-03-15T01:30:32.685Z,99.99
2017-03-15T01:31:32.966Z,99.99
2017-03-15T01:32:32.945Z,99.99
2017-03-15T01:33:32.934Z,99.99
2017-03-15T01:34:32.918Z,99.99
2017-03-15T01:35:32.880Z,99.99
2017-03-15T01:36:32.872Z,99.99
2017-03-15T01:37:32.851Z,99.99
2017-03-15T01:38:32.525Z,99.99
2017-03-15T01:39:32.817Z,99.99
2017-03-15T01:40:32.778Z,99.99
2017-03-15T01:41:32.766Z,99.99
2017-03-15T01:42:32.744Z,99.99
2017-03-15T01:43:32.712Z,99.99
2017-03-15T01:44:32.703Z,99.99
2017-03-15T01:45:32.675Z,99.99
2017-03-15T01:46:32.360Z,99.99
2017-03-15T01:47:32.330Z,99.99
2017-03-15T01:48:32.652Z,99.99
2017-03-15T01:49:32.599Z,99.99
2017-03-15T01:50:32.274Z,99.99
2017-03-15T01:51:32.249Z,99.99
2017-03-15T01:52:32.236Z,99.99
2017-03-15T01:53:32.211Z,99.99
2017-03-15T01:54:32.512Z,99.99
2017-03-15T01:55:32.466Z,99.99
2017-03-15T01:56:32.441Z,99.99
2017-03-15T01:57:32.422Z,99.99
2017-03-15T01:58:32.416Z,99.99
2017-03-15T01:59:32.379Z,99.99
2017-03-15T02:00:32.374Z,99.99
2017-03-15T02:01:32.356Z,99.99
2017-03-15T02:02:32.335Z,99.99
2017-03-15T02:03:32.303Z,99.99
2017-03-15T02:04:32.286Z,99.99
2017-03-15T02:05:32.275Z,99.99
2017-03-15T02:06:32.249Z,99.99
2017-03-15T02:07:32.220Z,99.99
2017-03-15T02:08:32.199Z,99.99
2017-03-15T02:09:31.877Z,99.99
2017-03-15T02:10:32.172Z,99.99
2017-03-15T02:11:32.138Z,99.99
2017-03-15T02:12:31.826Z,99.99
2017-03-15T02:13:31.794Z,99.99
2017-03-15T02:14:32.072Z,99.99
2017-03-15T02:15:32.057Z,99.99
2017-03-15T02:16:32.045Z,99.99
2017-03-15T02:17:32.016Z,99.99
2017-03-15T02:18:31.700Z,99.99
2017-03-15T02:19:31.682Z,99.99
2017-03-15T02:20:31.650Z,99.99
2017-03-15T02:21:31.929Z,99.99
2017-03-15T02:22:31.908Z,99.99
2017-03-15T02:23:31.902Z,99.99
2017-03-15T02:24:31.886Z,99.99
2017-03-15T02:25:31.849Z,99.99
2017-03-15T02:26:31.834Z,99.99
2017-03-15T02:27:31.815Z,99.99
2017-03-15T02:28:31.807Z,99.99
2017-03-15T02:29:31.773Z,99.99
2017-03-15T02:30:31.760Z,99.99
2017-03-15T02:31:31.429Z,99.99
2017-03-15T02:32:31.718Z,99.99
2017-03-15T02:33:31.688Z,99.99
2017-03-15T02:34:31.677Z,99.99
2017-03-15T02:35:31.663Z,99.99
2017-03-15T02:36:31.628Z,99.99
2017-03-15T02:37:31.610Z,99.99
2017-03-15T02:38:31.591Z,99.99
2017-03-15T02:39:31.578Z,99.99
2017-03-15T02:40:31.565Z,99.99
2017-03-15T02:41:31.234Z,99.99
2017-03-15T02:42:31.208Z,99.99
2017-03-15T02:43:31.502Z,99.99
2017-03-15T02:44:31.470Z,99.99
2017-03-15T02:45:31.453Z,99.99
2017-03-15T02:46:31.429Z,99.99
2017-03-15T02:47:31.415Z,99.99
2017-03-15T02:48:31.392Z,99.99
2017-03-15T02:49:31.400Z,99.99
2017-03-15T02:50:31.361Z,99.99
2017-03-15T02:51:31.346Z,99.99
2017-03-15T02:52:31.316Z,99.99
2017-03-15T02:53:31.297Z,99.99
2017-03-15T02:54:31.273Z,99.99
2017-03-15T02:55:31.262Z,99.99
2017-03-15T02:56:31.242Z,99.99
2017-03-15T02:57:31.211Z,99.99
2017-03-15T02:58:30.926Z,99.99
2017-03-15T02:59:31.187Z,99.99
2017-03-15T03:00:31.166Z,99.99
2017-03-15T03:01:31.139Z,99.99
2017-03-15T03:02:31.137Z,99.99
2017-03-15T03:03:31.103Z,99.99
2017-03-15T03:04:31.085Z,99.99
2017-03-15T03:05:31.055Z,99.99
2017-03-15T03:06:30.733Z,99.99
2017-03-15T03:07:30.728Z,99.99
2017-03-15T03:08:31.005Z,99.99
2017-03-15T03:09:30.984Z,99.99
2017-03-15T03:10:30.966Z,99.99
2017-03-15T03:11:30.644Z,99.99
2017-03-15T03:12:30.927Z,99.99
2017-03-15T03:13:30.598Z,99.99
2017-03-15T03:14:30.898Z,99.99
2017-03-15T03:15:30.879Z,99.99
2017-03-15T03:16:30.549Z,99.99
2017-03-15T03:17:30.838Z,99.99
2017-03-15T03:18:30.803Z,99.99
2017-03-15T03:19:30.478Z,99.99
2017-03-15T03:20:30.764Z,99.99
2017-03-15T03:21:30.740Z,99.99
2017-03-15T03:22:30.737Z,99.99
2017-03-15T03:23:30.718Z,99.99
2017-03-15T03:24:30.700Z,99.99
2017-03-15T03:25:30.680Z,99.99
2017-03-15T03:26:30.666Z,99.99
2017-03-15T03:27:30.628Z,99.99
2017-03-15T03:28:30.619Z,99.99
2017-03-15T03:29:30.292Z,99.99
2017-03-15T03:30:30.280Z,99.99
2017-03-15T03:31:30.562Z,99.99
2017-03-15T03:32:30.544Z,99.99
2017-03-15T03:33:30.523Z,99.99
2017-03-15T03:34:30.509Z,99.99
2017-03-15T03:35:30.471Z,99.99
2017-03-15T03:36:30.469Z,99.99
2017-03-15T03:37:30.442Z,99.99
2017-03-15T03:38:30.422Z,99.99
2017-03-15T03:39:30.401Z,99.99
2017-03-15T03:40:30.389Z,99.99
2017-03-15T03:41:30.063Z,99.99
2017-03-15T03:42:30.355Z,99.99
2017-03-15T03:43:30.337Z,99.99
2017-03-15T03:44:30.001Z,99.99
2017-03-15T03:45:30.298Z,99.99
2017-03-15T03:46:30.280Z,99.99
2017-03-15T03:47:30.264Z,99.99
2017-03-15T03:48:30.238Z,99.99
2017-03-15T03:49:30.206Z,99.99
2017-03-15T03:50:30.195Z,99.99
2017-03-15T03:51:30.177Z,99.99
2017-03-15T03:52:30.164Z,99.99
2017-03-15T03:53:30.151Z,99.99
2017-03-15T03:54:30.123Z,99.99
2017-03-15T03:55:30.116Z,99.99
2017-03-15T03:56:30.081Z,99.99
2017-03-15T03:57:30.074Z,99.99
2017-03-15T03:58:30.056Z,99.99
2017-03-15T03:59:30.029Z,99.99
2017-03-15T04:00:30.010Z,99.99
2017-03-15T04:01:29.996Z,99.99
2017-03-15T04:02:29.981Z,99.99
2017-03-15T04:03:29.964Z,99.99
2017-03-15T04:04:29.937Z,99.99
2017-03-15T04:05:29.915Z,99.99
2017-03-15T04:06:29.909Z,99.99
2017-03-15T04:07:29.885Z,99.99
2017-03-15T04:08:29.560Z,99.99
2017-03-15T04:09:29.836Z,99.99
2017-03-15T04:10:29.817Z,99.99
2017-03-15T04:11:29.810Z,99.99
2017-03-15T04:12:29.785Z,99.99
2017-03-15T04:13:29.767Z,99.99
2017-03-15T04:14:29.740Z,99.99
2017-03-15T04:15:29.737Z,99.99
2017-03-15T04:16:29.719Z,99.99
2017-03-15T04:17:29.690Z,99.99
2017-03-15T04:18:29.667Z,99.99
2017-03-15T04:19:29.645Z,99.99
2017-03-15T04:20:29.330Z,99.99
2017-03-15T04:21:29.615Z,99.99
2017-03-15T04:22:29.594Z,99.99
2017-03-15T04:23:29.569Z,99.99
2017-03-15T04:24:29.550Z,99.99
2017-03-15T04:25:29.545Z,99.99
2017-03-15T04:26:29.212Z,99.99
2017-03-15T04:27:29.492Z,99.99
2017-03-15T04:28:29.472Z,99.99
2017-03-15T04:29:29.148Z,99.99
2017-03-15T04:30:29.445Z,99.99
2017-03-15T04:31:29.421Z,99.99
2017-03-15T04:32:29.403Z,99.99
2017-03-15T04:33:29.376Z,99.99
2017-03-15T04:34:29.367Z,99.99
2017-03-15T04:35:29.348Z,99.99
2017-03-15T04:36:29.333Z,99.99
2017-03-15T04:37:29.313Z,99.99
2017-03-15T04:38:29.294Z,99.99
2017-03-15T04:39:29.264Z,99.99
2017-03-15T04:40:29.256Z,99.99
2017-03-15T04:41:29.224Z,99.99
2017-03-15T04:42:29.218Z,99.99
2017-03-15T04:43:29.184Z,99.99
2017-03-15T04:44:29.180Z,99.99
2017-03-15T04:45:29.167Z,99.99
2017-03-15T04:46:29.133Z,99.99
2017-03-15T04:47:28.817Z,99.99
2017-03-15T04:48:29.110Z,99.99
2017-03-15T04:49:29.093Z,99.99
2017-03-15T04:50:29.074Z,99.99
2017-03-15T04:51:29.040Z,99.99
2017-03-15T04:52:29.039Z,99.99
2017-03-15T04:53:29.009Z,99.99
2017-03-15T04:54:28.995Z,99.99
2017-03-15T04:55:28.969Z,99.99
2017-03-15T04:56:28.953Z,99.99
2017-03-15T04:57:28.942Z,99.99
2017-03-15T04:58:28.926Z,99.99
2017-03-15T04:59:28.911Z,99.99
2017-03-15T05:00:28.883Z,99.99
2017-03-15T05:01:28.876Z,99.99
2017-03-15T05:02:28.549Z,99.99
2017-03-15T05:03:28.833Z,99.99
2017-03-15T05:04:28.819Z,99.99
2017-03-15T05:05:28.802Z,99.99
2017-03-15T05:06:28.771Z,99.99
2017-03-15T05:07:28.770Z,99.99
2017-03-15T05:08:28.754Z,99.99
2017-03-15T05:09:28.724Z,99.99
2017-03-15T05:10:28.708Z,99.99
2017-03-15T05:11:28.684Z,99.99
2017-03-15T05:12:28.379Z,99.99
2017-03-15T05:13:28.652Z,99.99
2017-03-15T05:14:28.639Z,99.99
2017-03-15T05:15:28.623Z,99.99
2017-03-15T05:16:28.604Z,99.99
2017-03-15T05:17:28.583Z,99.99
2017-03-15T05:18:28.565Z,99.99
2017-03-15T05:19:28.550Z,99.99
2017-03-15T05:20:28.538Z,99.99
2017-03-15T05:21:28.517Z,99.99
2017-03-15T05:22:28.497Z,99.99
2017-03-15T05:23:28.479Z,99.99
2017-03-15T05:24:28.464Z,99.99
2017-03-15T05:25:28.441Z,99.99
2017-03-15T05:26:28.435Z,99.99
2017-03-15T05:27:28.410Z,99.99
2017-03-15T05:28:28.410Z,99.99
2017-03-15T05:29:28.375Z,99.99
2017-03-15T05:30:28.369Z,99.99
2017-03-15T05:31:28.348Z,99.99
2017-03-15T05:32:28.322Z,99.99
2017-03-15T05:33:28.300Z,99.99
2017-03-15T05:34:28.288Z,99.99
2017-03-15T05:35:28.268Z,99.99
2017-03-15T05:36:28.263Z,99.99
2017-03-15T05:37:28.243Z,99.99
2017-03-15T05:38:28.227Z,99.99
2017-03-15T05:39:28.197Z,99.99
2017-03-15T05:40:28.219Z,99.99
2017-03-15T05:41:28.179Z,99.99
2017-03-15T05:42:28.146Z,99.99
2017-03-15T05:43:28.129Z,99.99
2017-03-15T05:44:28.114Z,99.99
2017-03-15T05:45:28.096Z,99.99
2017-03-15T05:46:28.075Z,99.99
2017-03-15T05:47:28.069Z,99.99
2017-03-15T05:48:28.055Z,99.99
2017-03-15T05:49:28.035Z,99.99
2017-03-15T05:50:28.019Z,99.99
2017-03-15T05:51:27.988Z,99.99
2017-03-15T05:52:27.987Z,99.99
2017-03-15T05:53:27.953Z,99.99
2017-03-15T05:54:27.941Z,99.99
2017-03-15T05:55:27.938Z,99.99
2017-03-15T05:56:27.915Z,99.99
2017-03-15T05:57:27.898Z,99.99
2017-03-15T05:58:27.874Z,99.99
2017-03-15T05:59:27.870Z,99.99
2017-03-15T06:00:27.843Z,99.99
2017-03-15T06:01:27.820Z,99.99
2017-03-15T06:02:27.820Z,99.99
2017-03-15T06:03:27.802Z,99.99
2017-03-15T06:04:27.769Z,99.99
2017-03-15T06:05:27.769Z,99.99
2017-03-15T06:06:27.754Z,99.99
2017-03-15T06:07:27.737Z,99.99
2017-03-15T06:08:27.727Z,99.99
2017-03-15T06:09:27.703Z,99.99
2017-03-15T06:10:27.678Z,99.99
2017-03-15T06:11:27.660Z,99.99
2017-03-15T06:12:27.658Z,99.99
2017-03-15T06:13:27.626Z,99.99
2017-03-15T06:14:27.616Z,99.99
2017-03-15T06:15:27.599Z,99.99
2017-03-15T06:16:27.594Z,99.99
2017-03-15T06:17:27.570Z,99.99
2017-03-15T06:18:27.545Z,99.99
2017-03-15T06:19:27.537Z,99.99
2017-03-15T06:20:27.528Z,99.99
2017-03-15T06:21:27.517Z,99.99
2017-03-15T06:22:27.489Z,99.99
2017-03-15T06:23:27.485Z,99.99
2017-03-15T06:24:27.457Z,99.99
2017-03-15T06:25:27.440Z,99.99
2017-03-15T06:26:27.429Z,99.99
2017-03-15T06:27:27.418Z,99.99
2017-03-15T06:28:27.399Z,99.99
2017-03-15T06:29:27.381Z,99.99
2017-03-15T06:30:27.376Z,99.99
2017-03-15T06:31:27.355Z,99.99
2017-03-15T06:32:27.340Z,99.99
2017-03-15T06:33:27.327Z,99.99
2017-03-15T06:34:27.309Z,99.99
2017-03-15T06:35:27.301Z,99.99
2017-03-15T06:36:26.977Z,99.99
2017-03-15T06:37:27.273Z,99.99
2017-03-15T06:38:27.248Z,99.99
2017-03-15T06:39:27.237Z,99.99
2017-03-15T06:40:27.232Z,99.99
2017-03-15T06:41:27.216Z,99.99
2017-03-15T06:42:27.190Z,99.99
2017-03-15T06:43:27.175Z,99.99
2017-03-15T06:44:27.165Z,99.99
2017-03-15T06:45:27.148Z,99.99
2017-03-15T06:46:27.141Z,99.99
2017-03-15T06:47:27.119Z,99.99
2017-03-15T06:48:27.114Z,99.99
2017-03-15T06:49:27.089Z,99.99
2017-03-15T06:50:27.088Z,99.99
2017-03-15T06:51:27.057Z,99.99
2017-03-15T06:52:27.045Z,99.99
2017-03-15T06:53:27.031Z,99.99
2017-03-15T06:54:27.017Z,99.99
2017-03-15T06:55:27.027Z,99.99
2017-03-15T06:56:27.001Z,99.99
2017-03-15T06:57:26.977Z,99.99
2017-03-15T06:58:26.965Z,99.99
2017-03-15T06:59:26.958Z,99.99
2017-03-15T07:00:26.943Z,99.99
2017-03-15T07:01:26.934Z,99.99
2017-03-15T07:02:26.602Z,99.99
2017-03-15T07:03:26.905Z,99.99
2017-03-15T07:04:26.875Z,99.99
2017-03-15T07:05:26.879Z,99.99
2017-03-15T07:06:26.855Z,99.99
2017-03-15T07:07:26.839Z,99.99
2017-03-15T07:08:26.826Z,99.99
2017-03-15T07:09:26.507Z,99.99
2017-03-15T07:10:26.813Z,99.99
2017-03-15T07:11:26.800Z,99.99
2017-03-15T07:12:26.774Z,99.99
2017-03-15T07:13:26.772Z,99.99
2017-03-15T07:14:26.453Z,99.99
2017-03-15T07:15:26.750Z,99.99
2017-03-15T07:16:26.724Z,99.99
2017-03-15T07:17:26.715Z,99.99
2017-03-15T07:18:26.706Z,99.99
2017-03-15T07:19:26.697Z,99.99
2017-03-15T07:20:26.684Z,99.99
2017-03-15T07:21:26.658Z,99.99
2017-03-15T07:22:26.660Z,99.99
2017-03-15T07:23:26.648Z,99.99
2017-03-15T07:24:26.625Z,99.99
2017-03-15T07:25:26.614Z,99.99
2017-03-15T07:26:26.606Z,99.99
2017-03-15T07:27:26.598Z,99.99
2017-03-15T07:28:26.590Z,99.99
2017-03-15T07:29:26.578Z,99.99
2017-03-15T07:30:26.570Z,99.99
2017-03-15T07:31:26.539Z,99.99
2017-03-15T07:32:26.537Z,99.99
2017-03-15T07:33:26.525Z,99.99
2017-03-15T07:34:26.528Z,99.99
2017-03-15T07:35:26.503Z,99.99
2017-03-15T07:36:26.501Z,99.99
2017-03-15T07:37:26.480Z,99.99
2017-03-15T07:38:26.475Z,99.99
2017-03-15T07:39:26.161Z,99.99
2017-03-15T07:40:26.446Z,99.99
2017-03-15T07:41:26.145Z,99.99
2017-03-15T07:42:26.422Z,99.99
2017-03-15T07:43:26.432Z,99.99
2017-03-15T07:44:26.406Z,99.99
2017-03-15T07:45:26.395Z,99.99
2017-03-15T07:46:26.099Z,99.99
2017-03-15T07:47:26.075Z,99.99
2017-03-15T07:48:26.063Z,99.99
2017-03-15T07:49:26.382Z,99.99
2017-03-15T07:50:26.039Z,99.99
2017-03-15T07:51:26.345Z,99.99
2017-03-15T07:52:26.335Z,99.99
2017-03-15T07:53:26.327Z,99.99
2017-03-15T07:54:26.312Z,99.99
2017-03-15T07:55:26.309Z,99.99
2017-03-15T07:56:26.288Z,99.99
2017-03-15T07:57:26.265Z,99.99
2017-03-15T07:58:26.275Z,99.99
2017-03-15T07:59:26.264Z,99.99
2017-03-15T08:00:26.259Z,99.99
2017-03-15T08:01:26.239Z,99.99
2017-03-15T08:02:26.219Z,99.99
2017-03-15T08:03:26.221Z,99.99
2017-03-15T08:04:26.209Z,99.99
2017-03-15T08:05:26.190Z,99.99
2017-03-15T08:06:26.177Z,99.99
2017-03-15T08:07:26.159Z,99.99
2017-03-15T08:08:25.862Z,99.99
2017-03-15T08:09:26.149Z,99.99
2017-03-15T08:10:26.134Z,99.99
2017-03-15T08:11:26.128Z,99.99
2017-03-15T08:12:26.112Z,99.99
2017-03-15T08:13:25.806Z,99.99
2017-03-15T08:14:26.106Z,99.99
2017-03-15T08:15:26.082Z,99.99
2017-03-15T08:16:26.072Z,99.99
2017-03-15T08:17:26.075Z,99.99
2017-03-15T08:18:26.063Z,99.99
2017-03-15T08:19:26.059Z,99.99
2017-03-15T08:20:26.047Z,99.99
2017-03-15T08:21:26.038Z,99.99
2017-03-15T08:22:26.024Z,99.99
2017-03-15T08:23:26.000Z,99.99
2017-03-15T08:24:26.001Z,99.99
2017-03-15T08:25:26.000Z,99.99
2017-03-15T08:26:25.983Z,99.74
2017-03-15T08:27:25.659Z,99.99
2017-03-15T08:28:25.971Z,99.99
2017-03-15T08:29:25.986Z,99.98
2017-03-15T08:30:25.945Z,99.41
2017-03-15T08:31:25.922Z,99.41
2017-03-15T08:32:25.920Z,98.94
2017-03-15T08:33:25.913Z,99.41
2017-03-15T08:34:25.594Z,98.84
2017-03-15T08:35:25.888Z,99.08
2017-03-15T08:36:25.893Z,98.46
2017-03-15T08:37:25.869Z,98.5
2017-03-15T08:38:25.874Z,98.12
2017-03-15T08:39:25.862Z,98.07
2017-03-15T08:40:25.855Z,97.69
2017-03-15T08:41:25.842Z,97.88
2017-03-15T08:42:25.822Z,97.69
2017-03-15T08:43:25.809Z,98.07
2017-03-15T08:44:25.805Z,97.27
2017-03-15T08:45:25.802Z,97.12
2017-03-15T08:46:25.787Z,97.17
2017-03-15T08:47:25.471Z,96.97
2017-03-15T08:48:25.770Z,97.07
2017-03-15T08:49:25.750Z,96.93
2017-03-15T08:50:25.749Z,96.93
2017-03-15T08:51:25.736Z,96.31
2017-03-15T08:52:25.723Z,97.36
2017-03-15T08:53:25.706Z,96.74
2017-03-15T08:54:25.706Z,96.45
2017-03-15T08:55:25.696Z,96.55
2017-03-15T08:56:25.679Z,96.55
2017-03-15T08:57:25.662Z,96.88
2017-03-15T08:58:25.649Z,96.6
2017-03-15T08:59:25.632Z,96.69
2017-03-15T09:00:25.628Z,96.55
2017-03-15T09:01:25.616Z,96.31
2017-03-15T09:02:25.602Z,95.84
2017-03-15T09:03:25.323Z,95.98
2017-03-15T09:04:25.578Z,95.51
2017-03-15T09:05:25.586Z,95.98
2017-03-15T09:06:25.559Z,95.98
2017-03-15T09:07:25.561Z,95.6
2017-03-15T09:08:25.548Z,95.7
2017-03-15T09:09:25.525Z,95.46
2017-03-15T09:10:25.527Z,95.55
2017-03-15T09:11:25.500Z,95.36
2017-03-15T09:12:25.494Z,95.12
2017-03-15T09:13:25.484Z,95.46
2017-03-15T09:14:25.469Z,95.41
2017-03-15T09:15:25.469Z,95.17
2017-03-15T09:16:25.150Z,95.17
2017-03-15T09:17:25.448Z,95.17
2017-03-15T09:18:25.433Z,94.98
2017-03-15T09:19:25.411Z,95.03
2017-03-15T09:20:25.399Z,95.36
2017-03-15T09:21:25.396Z,95.36
2017-03-15T09:22:25.381Z,95.65
2017-03-15T09:23:25.381Z,95.79
2017-03-15T09:24:25.366Z,95.31
2017-03-15T09:25:25.352Z,95.46
2017-03-15T09:26:25.333Z,95.94
2017-03-15T09:27:25.313Z,96.65
2017-03-15T09:28:25.303Z,96.31
2017-03-15T09:29:25.294Z,96.74
2017-03-15T09:30:25.290Z,96.74
2017-03-15T09:31:25.285Z,95.84
2017-03-15T09:32:25.259Z,95.89
2017-03-15T09:33:25.258Z,95.17
2017-03-15T09:34:25.251Z,95.03
2017-03-15T09:35:25.237Z,94.6
2017-03-15T09:36:25.217Z,94.93
2017-03-15T09:37:25.217Z,94.56
2017-03-15T09:38:25.201Z,94.79
2017-03-15T09:39:25.190Z,94.51
2017-03-15T09:40:25.167Z,94.98
2017-03-15T09:41:25.156Z,95.12
2017-03-15T09:42:25.142Z,95.07
2017-03-15T09:43:25.123Z,95.26
2017-03-15T09:44:25.127Z,95.65
2017-03-15T09:45:25.116Z,96.12
2017-03-15T09:46:25.103Z,96.17
2017-03-15T09:47:25.077Z,96.26
2017-03-15T09:48:25.075Z,96.31
2017-03-15T09:49:25.071Z,96.69
2017-03-15T09:50:25.048Z,97.12
2017-03-15T09:51:25.046Z,96.98
2017-03-15T09:52:25.023Z,97.13
2017-03-15T09:53:24.715Z,96.94
2017-03-15T09:54:25.005Z,96.46
2017-03-15T09:55:24.679Z,96.6
2017-03-15T09:56:24.969Z,96.5
2017-03-15T09:57:24.961Z,96.17
2017-03-15T09:58:24.950Z,96.22
2017-03-15T09:59:24.941Z,95.55
2017-03-15T10:00:24.935Z,96.22
2017-03-15T10:01:24.913Z,96.17
2017-03-15T10:02:24.602Z,96.17
2017-03-15T10:03:24.889Z,96.08
2017-03-15T10:04:24.578Z,96.79
2017-03-15T10:05:24.876Z,96.88
2017-03-15T10:06:24.855Z,96.6
2017-03-15T10:07:24.849Z,96.26
2017-03-15T10:08:24.847Z,96.26
2017-03-15T10:09:24.834Z,96.17
2017-03-15T10:10:24.842Z,95.84
2017-03-15T10:11:24.500Z,95.69
2017-03-15T10:12:24.799Z,95.55
2017-03-15T10:13:24.823Z,95.55
2017-03-15T10:14:24.767Z,96.03
2017-03-15T10:15:24.767Z,96.12
2017-03-15T10:16:24.741Z,95.98
2017-03-15T10:17:24.737Z,96.64
2017-03-15T10:18:24.724Z,96.17
2017-03-15T10:19:24.699Z,95.93
2017-03-15T10:20:24.697Z,96.78
2017-03-15T10:21:24.682Z,96.64
2017-03-15T10:22:24.660Z,96.88
2017-03-15T10:23:24.695Z,96.64
2017-03-15T10:24:24.649Z,97.5
2017-03-15T10:25:24.334Z,97.27
2017-03-15T10:26:24.614Z,97.27
2017-03-15T10:27:24.599Z,97.6
2017-03-15T10:28:24.587Z,97.07
2017-03-15T10:29:24.586Z,96.83
2017-03-15T10:30:24.576Z,97.17
2017-03-15T10:31:24.562Z,96.97
2017-03-15T10:32:24.545Z,97.12
2017-03-15T10:33:24.539Z,97.55
2017-03-15T10:34:24.509Z,97.27
2017-03-15T10:35:24.504Z,97.27
2017-03-15T10:36:24.526Z,97.07
2017-03-15T10:37:24.477Z,97.07
2017-03-15T10:38:24.470Z,97.22
2017-03-15T10:39:24.462Z,97.17
2017-03-15T10:40:24.456Z,97.41
2017-03-15T10:41:24.435Z,97.31
2017-03-15T10:42:24.417Z,97.31
2017-03-15T10:43:24.406Z,97.02
2017-03-15T10:44:24.392Z,97.64
2017-03-15T10:45:24.398Z,97.78
2017-03-15T10:46:24.381Z,97.64
2017-03-15T10:47:24.381Z,97.36
2017-03-15T10:48:24.352Z,97.08
2017-03-15T10:49:24.343Z,97.69
2017-03-15T10:50:24.344Z,97.03
2017-03-15T10:51:24.021Z,97.31
2017-03-15T10:52:24.307Z,97.22
2017-03-15T10:53:24.300Z,97.5
2017-03-15T10:54:24.285Z,97.22
2017-03-15T10:55:24.277Z,96.84
2017-03-15T10:56:24.261Z,96.84
2017-03-15T10:57:24.269Z,96.93
2017-03-15T10:58:24.241Z,97.41
2017-03-15T10:59:24.244Z,96.84
2017-03-15T11:00:24.233Z,96.98
2017-03-15T11:01:24.210Z,96.94
2017-03-15T11:02:24.214Z,96.84
2017-03-15T11:03:24.186Z,97.08
2017-03-15T11:04:24.196Z,97.08
2017-03-15T11:05:23.880Z,96.84
2017-03-15T11:06:24.159Z,96.41
2017-03-15T11:07:24.162Z,96.41
2017-03-15T11:08:24.141Z,96.55
2017-03-15T11:09:24.143Z,96.84
2017-03-15T11:10:23.827Z,96.65
2017-03-15T11:11:24.114Z,96.75
2017-03-15T11:12:24.119Z,96.46
2017-03-15T11:13:24.094Z,96.36
2017-03-15T11:14:24.084Z,96.36
2017-03-15T11:15:24.074Z,96.08
2017-03-15T11:16:24.078Z,95.98
2017-03-15T11:17:24.071Z,96.17
2017-03-15T11:18:24.047Z,96.17
2017-03-15T11:19:24.055Z,96.36
2017-03-15T11:20:24.033Z,95.75
2017-03-15T11:21:24.031Z,95.32
2017-03-15T11:22:24.025Z,95.36
2017-03-15T11:23:24.019Z,95.27
2017-03-15T11:24:23.994Z,95.46
2017-03-15T11:25:23.984Z,95.32
2017-03-15T11:26:23.986Z,94.84
2017-03-15T11:27:23.977Z,94.84
2017-03-15T11:28:23.970Z,94.74
2017-03-15T11:29:23.958Z,94.74
2017-03-15T11:30:23.954Z,94.56
2017-03-15T11:31:23.940Z,94.56
2017-03-15T11:32:23.921Z,94.65
2017-03-15T11:33:23.918Z,94.46
2017-03-15T11:34:23.901Z,94.46
2017-03-15T11:35:23.904Z,94.32
2017-03-15T11:36:23.891Z,94.22
2017-03-15T11:37:23.575Z,94.13
2017-03-15T11:38:23.865Z,93.84
2017-03-15T11:39:23.867Z,93.89
2017-03-15T11:40:23.845Z,93.94
2017-03-15T11:41:23.849Z,93.46
2017-03-15T11:42:23.870Z,93.7
2017-03-15T11:43:23.828Z,93.79
2017-03-15T11:44:23.806Z,94.08
2017-03-15T11:45:23.805Z,93.55
2017-03-15T11:46:23.794Z,93.65
2017-03-15T11:47:23.787Z,93.37
2017-03-15T11:48:23.765Z,93.84
2017-03-15T11:49:23.457Z,93.37
2017-03-15T11:50:23.762Z,93.99
2017-03-15T11:51:23.736Z,93.13
2017-03-15T11:52:23.725Z,93.37
2017-03-15T11:53:23.723Z,93.46
2017-03-15T11:54:23.712Z,93.41
2017-03-15T11:55:23.702Z,93.51
2017-03-15T11:56:23.681Z,93.32
2017-03-15T11:57:23.688Z,93.46
2017-03-15T11:58:23.660Z,93.27
2017-03-15T11:59:23.652Z,93.27
2017-03-15T12:00:23.643Z,92.99
2017-03-15T12:01:23.628Z,92.9
2017-03-15T12:02:23.629Z,92.75
2017-03-15T12:03:23.604Z,92.42
2017-03-15T12:04:23.297Z,92.18
2017-03-15T12:05:23.583Z,92.38
2017-03-15T12:06:23.583Z,92.38
2017-03-15T12:07:23.561Z,91.99
2017-03-15T12:08:23.559Z,91.95
2017-03-15T12:09:23.546Z,91.71
2017-03-15T12:10:23.526Z,91.71
2017-03-15T12:11:23.521Z,91.81
2017-03-15T12:12:23.201Z,92.19
2017-03-15T12:13:23.184Z,91.9
2017-03-15T12:14:23.484Z,92.47
2017-03-15T12:15:23.464Z,92.52
2017-03-15T12:16:23.450Z,92.85
2017-03-15T12:17:23.450Z,93.84
2017-03-15T12:18:23.432Z,93.41
2017-03-15T12:19:23.419Z,92.18
2017-03-15T12:20:23.395Z,92.42
2017-03-15T12:21:23.090Z,93.04
2017-03-15T12:22:23.369Z,92.9
2017-03-15T12:23:23.357Z,93.18
2017-03-15T12:24:23.348Z,92.76
2017-03-15T12:25:23.335Z,92.99
2017-03-15T12:26:23.336Z,92.85
2017-03-15T12:27:23.312Z,92.47
2017-03-15T12:28:23.295Z,92.9
2017-03-15T12:29:23.295Z,93.04
2017-03-15T12:30:23.287Z,93.13
2017-03-15T12:31:23.270Z,93.04
2017-03-15T12:32:23.263Z,93.51
2017-03-15T12:33:23.236Z,93.84
2017-03-15T12:34:23.234Z,93.32
2017-03-15T12:35:23.219Z,93.84
2017-03-15T12:36:23.206Z,94.56
2017-03-15T12:37:23.181Z,94.03
2017-03-15T12:38:23.181Z,93.84
2017-03-15T12:39:23.157Z,93.7
2017-03-15T12:40:23.160Z,93.37
2017-03-15T12:41:23.138Z,93.46
2017-03-15T12:42:22.832Z,93.65
2017-03-15T12:43:23.121Z,93.89
2017-03-15T12:44:23.113Z,94.03
2017-03-15T12:45:22.787Z,94.03
2017-03-15T12:46:22.784Z,94.08
2017-03-15T12:47:23.072Z,93.8
2017-03-15T12:48:22.749Z,94.13
2017-03-15T12:49:22.737Z,93.84
2017-03-15T12:50:22.729Z,94.08
2017-03-15T12:51:23.031Z,94.56
2017-03-15T12:52:22.710Z,93.94
2017-03-15T12:53:23.007Z,94.23